Time;durP1;ratioP1;P1;durP2;ratioP2;P2;SDS_P1;SDS_P2;PMS_P1;PMS_P2;Temp;Humidity;BMP_temperature;BMP_pressure;BME280_temperature;BME280_humidity;BME280_pressure;Samples;Min_cycle;Max_cycle;Signal;HPM_P1;HPM_P2
2020/12/16 00:02:24;;;;;;;10.90;9.60;;;13.30;64.70;;;;;;5007560;28;20204;-39
2020/12/16 00:04:50;;;;;;;10.80;9.80;;;13.30;64.70;;;;;;5012573;28;20193;-39
2020/12/16 00:07:16;;;;;;;10.33;9.27;;;13.40;64.60;;;;;;5010538;28;20958;-39
2020/12/16 00:09:42;;;;;;;11.00;9.90;;;13.50;65.10;;;;;;5012849;28;20516;-39
2020/12/16 00:12:07;;;;;;;10.50;9.40;;;13.50;64.10;;;;;;5010689;28;20571;-40
2020/12/16 00:14:33;;;;;;;9.40;8.50;;;13.50;64.00;;;;;;5015037;28;20863;-39
2020/12/16 00:16:59;;;;;;;10.47;8.20;;;13.40;64.20;;;;;;5011435;28;20225;-39
2020/12/16 00:19:24;;;;;;;9.57;8.60;;;13.40;65.20;;;;;;5011105;28;20260;-39
2020/12/16 00:21:50;;;;;;;11.23;9.17;;;13.40;64.30;;;;;;5010971;28;20244;-39
2020/12/16 00:24:16;;;;;;;12.20;9.63;;;13.40;64.00;;;;;;5008179;28;20217;-39
2020/12/16 00:26:43;;;;;;;13.00;10.83;;;13.30;64.00;;;;;;5011363;28;20252;-39
2020/12/16 00:29:12;;;;;;;13.50;10.70;;;13.40;64.10;;;;;;5007499;28;20498;-39
2020/12/16 00:31:38;;;;;;;12.80;11.43;;;13.30;63.90;;;;;;5013571;28;20491;-39
2020/12/16 00:34:07;;;;;;;11.57;9.47;;;13.30;64.00;;;;;;5012210;28;20444;-39
2020/12/16 00:36:37;;;;;;;13.30;10.60;;;13.30;64.00;;;;;;5003527;28;20445;-39
2020/12/16 00:39:04;;;;;;;11.70;10.50;;;13.20;63.90;;;;;;5010744;28;20449;-39
2020/12/16 00:41:31;;;;;;;11.63;10.33;;;13.20;64.40;;;;;;5009561;28;20476;-39
2020/12/16 00:43:57;;;;;;;11.77;10.20;;;13.10;64.30;;;;;;5008913;28;20449;-39
2020/12/16 00:46:23;;;;;;;12.23;10.67;;;13.10;64.40;;;;;;5011082;28;20511;-39
2020/12/16 00:48:48;;;;;;;12.23;10.10;;;13.00;64.40;;;;;;5010425;28;20229;-39
2020/12/16 00:51:14;;;;;;;23.23;12.83;;;12.60;64.60;;;;;;5004542;28;20222;-39
2020/12/16 00:53:39;;;;;;;17.43;12.00;;;12.20;65.90;;;;;;5007050;28;20206;-39
2020/12/16 00:56:05;;;;;;;17.53;12.50;;;12.10;67.50;;;;;;5011261;28;20205;-39
2020/12/16 00:58:31;;;;;;;13.73;10.77;;;12.20;67.40;;;;;;5003246;28;20743;-40
2020/12/16 01:00:56;;;;;;;14.23;10.63;;;12.30;66.80;;;;;;5007210;28;20194;-39
2020/12/16 01:03:22;;;;;;;15.23;12.77;;;12.30;67.00;;;;;;5014039;28;20225;-39
2020/12/16 01:05:48;;;;;;;17.20;12.60;;;12.40;66.70;;;;;;5009109;28;20563;-39
2020/12/16 01:08:13;;;;;;;29.53;12.93;;;12.60;66.30;;;;;;5005950;28;20285;-39
2020/12/16 01:10:39;;;;;;;14.50;12.13;;;12.70;65.80;;;;;;5005905;28;20193;-39
2020/12/16 01:13:04;;;;;;;17.20;12.70;;;12.70;65.50;;;;;;5013294;28;20194;-39
2020/12/16 01:15:30;;;;;;;47.17;14.73;;;12.60;65.40;;;;;;5007426;28;20562;-39
2020/12/16 01:17:55;;;;;;;15.70;11.77;;;12.60;65.10;;;;;;5007827;28;20198;-39
2020/12/16 01:20:21;;;;;;;105.07;17.57;;;12.60;65.50;;;;;;5012100;28;20653;-39
2020/12/16 01:22:48;;;;;;;13.77;12.10;;;12.60;65.00;;;;;;5007440;28;20194;-39
2020/12/16 01:25:23;;;;;;;13.70;11.60;;;12.60;65.20;;;;;;5011194;28;20538;-39
2020/12/16 01:27:52;;;;;;;14.57;11.67;;;12.60;65.30;;;;;;5010132;28;20476;-39
2020/12/16 01:30:18;;;;;;;12.53;11.20;;;12.70;65.20;;;;;;5006207;28;20449;-39
2020/12/16 01:32:44;;;;;;;18.13;11.60;;;12.80;65.30;;;;;;5007298;28;20495;-39
2020/12/16 01:35:10;;;;;;;14.23;11.70;;;12.80;65.00;;;;;;5013600;28;20190;-39
2020/12/16 01:37:39;;;;;;;18.00;12.50;;;12.90;64.90;;;;;;5009390;28;20202;-39
2020/12/16 01:40:09;;;;;;;19.83;12.70;;;12.90;64.80;;;;;;5012286;28;20436;-39
2020/12/16 01:42:36;;;;;;;23.47;14.20;;;12.90;64.70;;;;;;5011013;28;20460;-39
2020/12/16 01:45:06;;;;;;;16.00;13.00;;;13.00;64.60;;;;;;5010479;28;20445;-39
2020/12/16 01:47:32;;;;;;;17.37;13.60;;;13.00;64.40;;;;;;5006912;28;20959;-39
2020/12/16 01:49:57;;;;;;;13.73;11.70;;;13.00;64.30;;;;;;5010109;28;20465;-39
2020/12/16 01:52:26;;;;;;;13.33;10.80;;;13.10;64.20;;;;;;5008700;28;20635;-39
2020/12/16 01:54:54;;;;;;;16.90;12.10;;;13.10;63.90;;;;;;5009576;28;20201;-40
2020/12/16 01:57:23;;;;;;;14.43;11.13;;;13.10;63.90;;;;;;5007558;28;20495;-39
2020/12/16 01:59:50;;;;;;;11.93;10.73;;;13.10;63.90;;;;;;5008492;28;20440;-39
2020/12/16 02:02:18;;;;;;;13.50;10.77;;;13.10;63.80;;;;;;5006654;28;21110;-39
2020/12/16 02:04:47;;;;;;;12.67;11.37;;;13.00;64.10;;;;;;5003771;28;20441;-40
2020/12/16 02:07:14;;;;;;;12.43;11.03;;;12.80;64.90;;;;;;5010184;28;20502;-39
2020/12/16 02:09:44;;;;;;;9.53;8.60;;;12.70;64.00;;;;;;5010166;28;21325;-39
2020/12/16 02:12:19;;;;;;;11.40;10.30;;;12.50;65.10;;;;;;5007899;28;20499;-39
2020/12/16 02:14:44;;;;;;;12.23;11.03;;;12.60;65.40;;;;;;5005913;28;20491;-39
2020/12/16 02:17:11;;;;;;;12.67;9.93;;;12.70;65.00;;;;;;5008925;28;20967;-39
2020/12/16 02:19:48;;;;;;;11.90;9.90;;;12.60;64.20;;;;;;5013108;28;20210;-39
2020/12/16 02:22:14;;;;;;;14.50;10.30;;;12.60;64.70;;;;;;5007855;28;20466;-39
2020/12/16 02:25:13;;;;;;;11.23;10.03;;;12.70;64.40;;;;;;5008326;28;20460;-39
2020/12/16 02:27:40;;;;;;;10.80;9.73;;;12.80;64.20;;;;;;5005232;28;20853;-39
2020/12/16 02:30:10;;;;;;;8.50;7.70;;;12.80;64.00;;;;;;5006882;28;20457;-39
2020/12/16 02:32:36;;;;;;;11.03;9.93;;;12.80;64.10;;;;;;5009545;28;20568;-39
2020/12/16 02:35:02;;;;;;;11.67;9.53;;;12.90;63.90;;;;;;5011856;28;20524;-39
2020/12/16 02:37:27;;;;;;;9.30;8.40;;;12.90;63.70;;;;;;5006585;28;20452;-39
2020/12/16 02:39:53;;;;;;;10.30;9.17;;;13.00;63.90;;;;;;5008034;28;20277;-39
2020/12/16 02:42:32;;;;;;;10.13;9.10;;;13.00;63.80;;;;;;5005157;28;20272;-39
2020/12/16 02:44:57;;;;;;;8.27;7.43;;;13.00;63.90;;;;;;5007625;28;20194;-39
2020/12/16 02:47:23;;;;;;;9.90;7.40;;;13.00;63.90;;;;;;5002896;28;20986;-39
2020/12/16 02:49:49;;;;;;;9.43;8.50;;;13.00;63.80;;;;;;5009143;28;20732;-39
2020/12/16 02:52:15;;;;;;;11.07;8.70;;;13.00;63.80;;;;;;5006968;28;20496;-39
2020/12/16 02:54:41;;;;;;;11.97;9.90;;;12.90;63.90;;;;;;5003204;28;20195;-39
2020/12/16 02:57:06;;;;;;;10.97;9.87;;;13.00;64.20;;;;;;5004856;28;20202;-40
2020/12/16 02:59:33;;;;;;;11.97;9.23;;;13.00;64.00;;;;;;5012052;28;20198;-39
2020/12/16 03:01:58;;;;;;;12.33;10.23;;;13.00;63.50;;;;;;5006942;28;20198;-39
2020/12/16 03:04:25;;;;;;;11.27;10.07;;;13.10;63.30;;;;;;5010912;28;20458;-39
2020/12/16 03:06:53;;;;;;;13.40;9.43;;;13.00;63.00;;;;;;5005153;28;20236;-39
2020/12/16 03:09:21;;;;;;;9.43;8.43;;;13.10;62.90;;;;;;5000687;28;20441;-39
2020/12/16 03:11:53;;;;;;;11.70;9.00;;;13.10;62.80;;;;;;5009009;28;20998;-39
2020/12/16 03:14:19;;;;;;;10.43;9.43;;;13.00;62.80;;;;;;5003323;28;20808;-39
2020/12/16 03:16:45;;;;;;;9.90;9.00;;;12.90;62.70;;;;;;5008735;28;20444;-39
2020/12/16 03:19:11;;;;;;;10.60;9.60;;;12.90;62.80;;;;;;5011029;28;20550;-39
2020/12/16 03:21:36;;;;;;;12.13;9.50;;;12.80;62.60;;;;;;5010882;28;20468;-39
2020/12/16 03:24:02;;;;;;;15.07;10.00;;;12.80;62.90;;;;;;5005499;28;20222;-39
2020/12/16 03:26:27;;;;;;;9.73;8.53;;;12.40;63.00;;;;;;5014352;28;20201;-39
2020/12/16 03:28:53;;;;;;;10.60;9.23;;;12.30;64.80;;;;;;5009154;28;20567;-39
2020/12/16 03:31:18;;;;;;;9.77;8.47;;;12.40;64.90;;;;;;5007277;28;20241;-39
2020/12/16 03:33:46;;;;;;;9.47;7.73;;;12.50;64.60;;;;;;5007824;28;20198;-39
2020/12/16 03:36:17;;;;;;;9.47;8.53;;;12.60;64.40;;;;;;5004905;28;20202;-39
2020/12/16 03:38:43;;;;;;;10.53;8.60;;;12.50;63.90;;;;;;5008616;28;20501;-39
2020/12/16 03:41:10;;;;;;;9.63;8.63;;;12.60;65.20;;;;;;5006057;28;20499;-39
2020/12/16 03:43:35;;;;;;;9.67;8.67;;;12.50;64.00;;;;;;5007391;28;20444;-39
2020/12/16 03:46:01;;;;;;;8.37;7.47;;;12.50;64.00;;;;;;5011958;28;20818;-39
2020/12/16 03:48:27;;;;;;;8.07;7.33;;;12.40;64.20;;;;;;5007046;28;20292;-39
2020/12/16 03:50:52;;;;;;;8.73;7.93;;;12.50;64.20;;;;;;5009755;28;20202;-39
2020/12/16 03:53:18;;;;;;;9.73;8.60;;;12.40;64.60;;;;;;5008071;28;20645;-39
2020/12/16 03:55:44;;;;;;;8.27;7.47;;;12.40;64.40;;;;;;5007420;28;20289;-39
2020/12/16 03:58:09;;;;;;;8.80;7.50;;;12.40;64.30;;;;;;5003084;28;20219;-39
2020/12/16 04:00:35;;;;;;;10.07;7.80;;;12.40;64.30;;;;;;5008774;28;20198;-39
2020/12/16 04:03:00;;;;;;;8.17;7.47;;;12.40;64.70;;;;;;5008199;28;20677;-39
2020/12/16 04:05:26;;;;;;;7.90;7.20;;;12.40;64.60;;;;;;5008665;28;20608;-39
2020/12/16 04:07:52;;;;;;;8.20;7.50;;;12.50;64.40;;;;;;5005806;28;20198;-39
2020/12/16 04:10:17;;;;;;;9.17;8.37;;;12.50;64.00;;;;;;5009141;28;20653;-39
2020/12/16 04:12:43;;;;;;;8.50;7.60;;;12.60;64.10;;;;;;5003276;28;20260;-39
2020/12/16 04:15:09;;;;;;;8.33;7.53;;;12.60;63.90;;;;;;5006656;28;20202;-39
2020/12/16 04:17:35;;;;;;;8.90;8.00;;;12.60;63.50;;;;;;5005320;28;20190;-39
2020/12/16 04:20:03;;;;;;;8.07;7.37;;;12.60;63.20;;;;;;5007375;28;20216;-39
2020/12/16 04:22:29;;;;;;;7.93;7.13;;;12.60;63.20;;;;;;5003499;28;20524;-39
2020/12/16 04:24:55;;;;;;;8.47;7.00;;;12.60;63.20;;;;;;5002764;28;21000;-39
2020/12/16 04:27:21;;;;;;;7.27;6.57;;;12.60;63.10;;;;;;5006039;28;20440;-39
2020/12/16 04:29:47;;;;;;;7.80;7.00;;;12.50;63.20;;;;;;5007780;28;20510;-40
2020/12/16 04:32:14;;;;;;;12.90;8.00;;;12.40;63.70;;;;;;5006276;28;20240;-39
2020/12/16 04:34:40;;;;;;;7.33;6.63;;;12.40;64.00;;;;;;5012623;28;20987;-39
2020/12/16 04:37:06;;;;;;;7.53;6.87;;;12.30;64.40;;;;;;5008260;28;20440;-39
2020/12/16 04:39:31;;;;;;;7.77;6.97;;;12.10;65.20;;;;;;5006649;28;20469;-39
2020/12/16 04:41:57;;;;;;;9.27;8.27;;;12.00;65.10;;;;;;5006106;28;20303;-39
2020/12/16 04:44:22;;;;;;;10.23;9.33;;;11.80;65.30;;;;;;5007957;28;20194;-39
2020/12/16 04:46:48;;;;;;;8.80;7.90;;;11.80;65.90;;;;;;5008841;28;20272;-39
2020/12/16 04:49:15;;;;;;;8.93;8.03;;;11.60;66.10;;;;;;5003937;28;20357;-39
2020/12/16 04:51:43;;;;;;;8.67;7.80;;;11.40;66.60;;;;;;5008064;28;20576;-39
2020/12/16 04:54:11;;;;;;;9.67;8.63;;;11.20;67.70;;;;;;5010242;28;20452;-39
2020/12/16 04:56:37;;;;;;;8.00;7.20;;;11.20;67.60;;;;;;5009871;28;20468;-39
2020/12/16 04:59:05;;;;;;;7.87;7.13;;;11.30;67.60;;;;;;5012077;28;20503;-39
2020/12/16 05:01:31;;;;;;;7.57;6.67;;;11.30;67.40;;;;;;5008304;28;20433;-39
2020/12/16 05:03:57;;;;;;;7.50;6.80;;;11.30;66.90;;;;;;5011684;28;20823;-39
2020/12/16 05:06:39;;;;;;;8.77;7.83;;;11.40;67.10;;;;;;5009976;28;20441;-39
2020/12/16 05:09:10;;;;;;;8.63;7.40;;;11.30;67.20;;;;;;5013276;28;20209;-39
2020/12/16 05:11:47;;;;;;;11.40;8.27;;;11.20;67.70;;;;;;5007866;28;20980;-39
2020/12/16 05:14:16;;;;;;;10.93;7.50;;;11.20;68.00;;;;;;5002190;28;20444;-39
2020/12/16 05:16:51;;;;;;;8.10;7.40;;;11.00;68.60;;;;;;5005346;28;20452;-39
2020/12/16 05:19:31;;;;;;;8.57;7.67;;;10.70;69.30;;;;;;5009322;28;20463;-39
2020/12/16 05:22:13;;;;;;;8.73;7.20;;;10.40;71.00;;;;;;5008857;28;20459;-39
2020/12/16 05:24:40;;;;;;;7.80;7.07;;;10.50;71.00;;;;;;5003271;28;20456;-39
2020/12/16 05:27:13;;;;;;;8.60;7.77;;;10.40;71.90;;;;;;5011051;28;20445;-39
2020/12/16 05:29:38;;;;;;;8.10;7.30;;;10.50;71.30;;;;;;5023305;28;21032;-39
2020/12/16 05:32:18;;;;;;;9.03;8.10;;;10.80;70.90;;;;;;5007681;28;20598;-39
2020/12/16 05:34:44;;;;;;;9.70;8.80;;;11.10;69.70;;;;;;5012576;28;20229;-40
2020/12/16 05:37:22;;;;;;;7.97;7.17;;;11.00;68.20;;;;;;4999377;28;20492;-39
2020/12/16 05:40:05;;;;;;;8.67;7.33;;;11.10;69.00;;;;;;5008275;28;20225;-39
2020/12/16 05:42:31;;;;;;;8.57;7.57;;;11.00;68.30;;;;;;5009310;28;20465;-39
2020/12/16 05:44:59;;;;;;;9.90;7.77;;;10.90;69.50;;;;;;5010304;28;20452;-39
2020/12/16 05:47:25;;;;;;;8.00;7.20;;;10.80;69.00;;;;;;5009313;28;20205;-39
2020/12/16 05:49:51;;;;;;;8.83;7.90;;;10.60;69.50;;;;;;5012034;28;20476;-39
2020/12/16 05:52:17;;;;;;;10.00;7.93;;;10.50;69.70;;;;;;5007428;28;20484;-39
2020/12/16 05:54:47;;;;;;;8.60;7.67;;;10.60;70.20;;;;;;5008811;28;20448;-39
2020/12/16 05:57:21;;;;;;;9.37;8.47;;;10.80;69.60;;;;;;5008559;28;20514;-39
2020/12/16 06:00:12;;;;;;;9.87;8.40;;;10.70;69.50;;;;;;5007367;28;20460;-39
2020/12/16 06:02:43;;;;;;;8.30;7.50;;;10.80;69.50;;;;;;5012410;28;20444;-39
2020/12/16 06:05:14;;;;;;;8.83;7.93;;;10.90;69.10;;;;;;5007203;28;20575;-39
2020/12/16 06:07:45;;;;;;;8.67;7.83;;;11.10;68.60;;;;;;5009775;28;20453;-39
2020/12/16 06:10:11;;;;;;;8.57;7.70;;;11.10;68.10;;;;;;5010090;28;21190;-39
2020/12/16 06:12:39;;;;;;;8.83;7.80;;;11.30;67.90;;;;;;5008291;28;20489;-39
2020/12/16 06:15:15;;;;;;;8.43;7.70;;;11.40;67.30;;;;;;5008448;28;20293;-39
2020/12/16 06:17:49;;;;;;;10.40;8.57;;;11.40;66.90;;;;;;5011062;28;20482;-39
2020/12/16 06:20:17;;;;;;;9.43;8.43;;;11.30;66.90;;;;;;5001523;28;20499;-39
2020/12/16 06:22:44;;;;;;;11.97;7.37;;;11.10;67.30;;;;;;5008333;28;20456;-39
2020/12/16 06:25:12;;;;;;;9.00;7.93;;;11.20;67.80;;;;;;5008242;28;20444;-39
2020/12/16 06:27:51;;;;;;;7.73;7.03;;;11.40;69.60;;;;;;5009146;28;20503;-39
2020/12/16 06:30:35;;;;;;;8.70;7.90;;;11.80;68.80;;;;;;5007663;28;20816;-39
2020/12/16 06:33:06;;;;;;;15.30;8.10;;;12.00;67.00;;;;;;5007848;28;20495;-40
2020/12/16 06:35:32;;;;;;;6.83;6.20;;;12.30;65.90;;;;;;5010860;28;20452;-39
2020/12/16 06:38:18;;;;;;;9.47;6.83;;;12.60;65.20;;;;;;5007018;28;20480;-39
2020/12/16 06:40:46;;;;;;;7.53;6.37;;;12.80;64.00;;;;;;5001985;28;20198;-39
2020/12/16 06:43:35;;;;;;;7.37;6.67;;;13.00;63.30;;;;;;5002980;28;20528;-39
2020/12/16 06:46:02;;;;;;;14.53;10.40;;;12.90;61.80;;;;;;5004691;28;20445;-39
2020/12/16 06:48:36;;;;;;;13.83;11.03;;;12.80;62.70;;;;;;5009644;28;20544;-39
2020/12/16 06:51:17;;;;;;;10.73;9.00;;;12.80;62.30;;;;;;5009547;28;20546;-39
2020/12/16 06:53:46;;;;;;;12.27;9.50;;;12.90;62.40;;;;;;5007874;28;20463;-39
2020/12/16 06:56:17;;;;;;;9.80;8.00;;;13.00;61.70;;;;;;5010650;28;20448;-40
2020/12/16 06:58:42;;;;;;;9.00;8.10;;;13.10;61.30;;;;;;5011704;28;20494;-39
2020/12/16 07:01:16;;;;;;;9.63;8.57;;;13.20;61.10;;;;;;5009710;28;20524;-39
2020/12/16 07:03:42;;;;;;;8.53;7.67;;;13.40;60.80;;;;;;5016814;28;20190;-39
2020/12/16 07:06:31;;;;;;;8.83;7.93;;;13.20;59.60;;;;;;5009639;28;20947;-39
2020/12/16 07:09:15;;;;;;;9.67;8.67;;;12.80;60.10;;;;;;5002718;28;20453;-39
2020/12/16 07:11:42;;;;;;;12.00;7.13;;;13.00;61.60;;;;;;5010316;28;20490;-39
2020/12/16 07:14:18;;;;;;;8.63;7.77;;;12.80;60.60;;;;;;5010687;28;20483;-39
2020/12/16 07:16:44;;;;;;;9.17;7.47;;;12.80;61.30;;;;;;5010278;28;20425;-40
2020/12/16 07:19:12;;;;;;;9.60;8.07;;;12.80;61.10;;;;;;5011078;28;20449;-39
2020/12/16 07:21:40;;;;;;;11.00;8.80;;;12.80;61.20;;;;;;5012278;28;20431;-39
2020/12/16 07:24:13;;;;;;;8.37;7.50;;;12.70;61.40;;;;;;5009751;28;20425;-40
2020/12/16 07:26:48;;;;;;;9.57;8.57;;;12.90;61.20;;;;;;5008910;28;20983;-40
2020/12/16 07:29:38;;;;;;;8.87;7.97;;;12.90;61.30;;;;;;5010880;28;20445;-39
2020/12/16 07:32:09;;;;;;;9.57;8.57;;;13.10;60.70;;;;;;5007511;28;21021;-39
2020/12/16 07:34:53;;;;;;;12.63;8.37;;;13.30;60.10;;;;;;5009827;28;20924;-40
2020/12/16 07:37:30;;;;;;;13.43;10.60;;;13.50;59.80;;;;;;5010109;28;20482;-39
2020/12/16 07:40:00;;;;;;;14.90;10.37;;;13.70;59.60;;;;;;5000934;28;20460;-40
2020/12/16 07:42:31;;;;;;;10.27;8.70;;;13.80;59.10;;;;;;5007833;28;20449;-40
2020/12/16 07:44:58;;;;;;;10.17;8.33;;;13.80;58.80;;;;;;5009878;28;20460;-40
2020/12/16 07:47:24;;;;;;;12.30;9.67;;;13.90;58.70;;;;;;5007361;28;20479;-39
2020/12/16 07:49:50;;;;;;;11.27;8.40;;;14.00;58.50;;;;;;5010861;28;20473;-39
2020/12/16 07:52:21;;;;;;;9.40;8.40;;;14.10;58.30;;;;;;5006852;28;20571;-40
2020/12/16 07:54:47;;;;;;;8.37;7.57;;;14.10;58.20;;;;;;5010858;28;20828;-40
2020/12/16 07:57:12;;;;;;;11.30;8.63;;;14.20;58.20;;;;;;5009736;28;20540;-40
2020/12/16 07:59:38;;;;;;;8.00;7.23;;;14.20;58.10;;;;;;5011117;28;20830;-39
2020/12/16 08:02:13;;;;;;;8.20;7.40;;;14.10;57.90;;;;;;5010355;28;20236;-39
2020/12/16 08:04:41;;;;;;;7.30;6.70;;;13.80;58.30;;;;;;5023136;28;20283;-39
2020/12/16 08:07:14;;;;;;;8.53;7.63;;;13.70;58.90;;;;;;5030249;28;20924;-39
2020/12/16 08:09:53;;;;;;;8.90;8.10;;;13.80;59.00;;;;;;5030958;28;20501;-39
2020/12/16 08:12:20;;;;;;;9.07;7.67;;;13.90;58.60;;;;;;5029219;28;20629;-39
2020/12/16 08:14:45;;;;;;;15.27;9.97;;;14.00;58.50;;;;;;5007688;28;20440;-39
2020/12/16 08:17:11;;;;;;;12.10;9.77;;;14.10;58.30;;;;;;5008336;28;20456;-39
2020/12/16 08:19:37;;;;;;;13.10;8.47;;;14.10;58.20;;;;;;5006410;28;20189;-40
2020/12/16 08:22:11;;;;;;;9.50;8.67;;;14.00;58.10;;;;;;4997508;28;22208;-40
2020/12/16 08:24:37;;;;;;;8.57;7.77;;;14.00;58.40;;;;;;5006565;28;20440;-40
2020/12/16 08:27:02;;;;;;;12.43;8.67;;;13.70;58.80;;;;;;5010847;28;20432;-41
2020/12/16 08:29:29;;;;;;;8.67;7.27;;;13.70;59.20;;;;;;5013030;28;20297;-40
2020/12/16 08:31:55;;;;;;;8.10;7.30;;;13.60;59.10;;;;;;5012465;28;22020;-41
2020/12/16 08:34:22;;;;;;;9.50;8.50;;;13.70;59.30;;;;;;5017176;28;20443;-40
2020/12/16 08:36:51;;;;;;;9.20;8.30;;;13.70;59.20;;;;;;5017339;28;20947;-40
2020/12/16 08:39:27;;;;;;;9.20;8.17;;;13.70;59.30;;;;;;5007977;28;20527;-41
2020/12/16 08:41:56;;;;;;;9.33;8.37;;;13.80;59.50;;;;;;5013217;28;20439;-40
2020/12/16 08:44:22;;;;;;;9.20;8.10;;;14.00;59.50;;;;;;5010024;28;20463;-41
2020/12/16 08:46:49;;;;;;;9.03;8.13;;;14.00;59.00;;;;;;5010906;28;20440;-40
2020/12/16 08:49:15;;;;;;;8.13;7.40;;;14.10;58.80;;;;;;5011673;28;21056;-40
2020/12/16 08:51:44;;;;;;;9.40;8.40;;;14.10;58.60;;;;;;5011710;28;20514;-41
2020/12/16 08:54:12;;;;;;;10.53;8.87;;;14.00;58.50;;;;;;5010836;28;20600;-41
2020/12/16 08:56:39;;;;;;;8.57;7.73;;;13.80;58.50;;;;;;5010701;28;20457;-40
2020/12/16 08:59:22;;;;;;;11.37;8.50;;;13.90;59.00;;;;;;5012847;28;20441;-41
2020/12/16 09:01:49;;;;;;;11.20;8.60;;;13.80;60.30;;;;;;5011724;28;20429;-41
2020/12/16 09:04:26;;;;;;;11.00;9.23;;;13.70;60.90;;;;;;5011617;28;20802;-40
2020/12/16 09:07:11;;;;;;;11.27;8.87;;;13.70;61.70;;;;;;5012938;28;20855;-40
2020/12/16 09:09:39;;;;;;;19.17;9.67;;;14.00;61.30;;;;;;5012581;28;20847;-40
2020/12/16 09:12:12;;;;;;;10.27;9.20;;;14.10;60.20;;;;;;5010415;28;20516;-40
2020/12/16 09:14:38;;;;;;;23.63;10.30;;;14.20;60.30;;;;;;5011810;28;20449;-41
2020/12/16 09:17:07;;;;;;;11.80;9.90;;;14.60;60.10;;;;;;5013778;28;20563;-41
2020/12/16 09:19:34;;;;;;;11.03;9.53;;;14.80;59.20;;;;;;5016731;28;20944;-41
2020/12/16 09:22:01;;;;;;;11.77;10.13;;;14.90;58.80;;;;;;5012934;28;20437;-41
2020/12/16 09:24:27;;;;;;;11.47;10.27;;;15.10;57.50;;;;;;5005629;28;20449;-40
2020/12/16 09:26:55;;;;;;;16.30;11.53;;;15.10;57.60;;;;;;5005204;28;20438;-41
2020/12/16 09:29:29;;;;;;;13.67;11.73;;;15.20;58.20;;;;;;5009527;28;20194;-41
2020/12/16 09:32:15;;;;;;;15.80;10.30;;;15.30;57.90;;;;;;5010793;28;20496;-42
2020/12/16 09:34:42;;;;;;;12.17;10.70;;;15.50;58.20;;;;;;5009031;28;20453;-41
2020/12/16 09:37:17;;;;;;;12.63;10.07;;;15.60;58.10;;;;;;5009802;28;20486;-41
2020/12/16 09:39:47;;;;;;;13.87;11.60;;;15.90;57.60;;;;;;5010091;28;20898;-41
2020/12/16 09:42:18;;;;;;;11.60;10.40;;;16.20;56.90;;;;;;5004436;28;20456;-41
2020/12/16 09:44:44;;;;;;;12.70;11.50;;;16.40;55.70;;;;;;5011255;28;20801;-41
2020/12/16 09:47:11;;;;;;;13.50;10.80;;;16.40;55.50;;;;;;5010523;28;20436;-41
2020/12/16 09:49:38;;;;;;;11.63;10.43;;;16.10;55.30;;;;;;5010055;28;20569;-41
2020/12/16 09:52:04;;;;;;;11.93;10.27;;;16.20;56.10;;;;;;5011042;28;20489;-41
2020/12/16 09:54:30;;;;;;;14.63;10.13;;;16.00;55.80;;;;;;5010797;28;20448;-41
2020/12/16 09:57:09;;;;;;;12.20;11.00;;;16.30;56.10;;;;;;5011812;28;20190;-41
2020/12/16 09:59:35;;;;;;;12.10;10.80;;;16.70;55.10;;;;;;5010530;28;20483;-41
2020/12/16 10:02:01;;;;;;;12.20;11.00;;;16.50;55.30;;;;;;5009534;28;20521;-41
2020/12/16 10:04:27;;;;;;;14.70;11.17;;;16.60;55.90;;;;;;5012031;28;20432;-41
2020/12/16 10:06:53;;;;;;;12.33;10.07;;;16.70;54.70;;;;;;5011269;28;20944;-41
2020/12/16 10:09:19;;;;;;;13.03;10.77;;;16.80;55.10;;;;;;5007599;28;20198;-41
2020/12/16 10:11:51;;;;;;;11.93;9.70;;;17.00;54.70;;;;;;5011184;28;20288;-41
2020/12/16 10:14:18;;;;;;;16.00;11.20;;;17.00;54.30;;;;;;5004390;28;20273;-41
2020/12/16 10:16:45;;;;;;;14.17;11.40;;;17.00;54.60;;;;;;5009402;28;20796;-41
2020/12/16 10:19:12;;;;;;;14.83;10.20;;;17.10;54.50;;;;;;5009148;28;20432;-41
2020/12/16 10:21:38;;;;;;;14.00;10.60;;;17.10;54.40;;;;;;5016266;28;20428;-41
2020/12/16 10:24:03;;;;;;;15.23;11.37;;;17.10;54.70;;;;;;5012080;28;20781;-41
2020/12/16 10:26:29;;;;;;;12.97;10.73;;;17.30;54.30;;;;;;5007652;28;20448;-41
2020/12/16 10:28:55;;;;;;;10.90;9.80;;;17.40;54.00;;;;;;5011315;28;20652;-41
2020/12/16 10:31:20;;;;;;;10.83;8.80;;;17.30;54.50;;;;;;5008311;28;20619;-41
2020/12/16 10:33:46;;;;;;;11.43;10.23;;;17.30;54.60;;;;;;5009029;28;20190;-41
2020/12/16 10:36:12;;;;;;;11.00;9.90;;;17.50;53.90;;;;;;5009388;28;20608;-41
2020/12/16 10:38:37;;;;;;;10.97;9.87;;;17.60;53.60;;;;;;5008876;28;20598;-41
2020/12/16 10:41:03;;;;;;;11.23;10.13;;;17.50;53.50;;;;;;5009938;28;20810;-41
2020/12/16 10:43:28;;;;;;;11.67;10.47;;;17.40;54.40;;;;;;5004608;28;20194;-41
2020/12/16 10:45:55;;;;;;;10.43;9.30;;;17.60;54.20;;;;;;5011356;28;20197;-41
2020/12/16 10:48:21;;;;;;;11.50;10.20;;;18.00;53.70;;;;;;5008907;28;20237;-41
2020/12/16 10:50:47;;;;;;;12.33;10.43;;;18.10;52.40;;;;;;5011307;28;20479;-41
2020/12/16 10:53:12;;;;;;;11.60;10.43;;;17.90;52.80;;;;;;5010136;28;20847;-41
2020/12/16 10:55:38;;;;;;;12.30;11.00;;;18.10;52.50;;;;;;5014402;28;20644;-41
2020/12/16 10:58:04;;;;;;;12.20;11.00;;;18.40;51.80;;;;;;5010250;28;20198;-41
2020/12/16 11:00:29;;;;;;;12.60;10.73;;;18.50;51.60;;;;;;5010239;28;20197;-41
2020/12/16 11:02:55;;;;;;;11.00;9.67;;;18.90;50.70;;;;;;5008267;28;20200;-42
2020/12/16 11:05:20;;;;;;;11.00;9.60;;;19.10;50.10;;;;;;5007737;28;20226;-41
2020/12/16 11:07:46;;;;;;;11.97;9.70;;;19.30;49.80;;;;;;5010186;28;20668;-41
2020/12/16 11:10:11;;;;;;;12.63;9.63;;;19.60;49.00;;;;;;5010163;28;20232;-43
2020/12/16 11:12:37;;;;;;;10.80;8.00;;;19.40;49.20;;;;;;5007334;28;20732;-41
2020/12/16 11:15:03;;;;;;;10.33;8.00;;;19.60;49.60;;;;;;5007135;28;20206;-42
2020/12/16 11:17:29;;;;;;;9.63;8.73;;;20.10;48.50;;;;;;5009101;28;20198;-42
2020/12/16 11:19:54;;;;;;;11.30;8.87;;;20.50;48.00;;;;;;5009062;28;20963;-42
2020/12/16 11:22:20;;;;;;;11.17;8.43;;;20.80;47.30;;;;;;5010762;28;20222;-42
2020/12/16 11:24:46;;;;;;;10.07;9.07;;;21.10;46.50;;;;;;5013146;28;20253;-42
2020/12/16 11:27:12;;;;;;;8.03;7.10;;;21.40;46.30;;;;;;5011911;28;20425;-43
2020/12/16 11:29:37;;;;;;;8.30;6.90;;;21.30;46.20;;;;;;5011895;28;20553;-41
2020/12/16 11:32:04;;;;;;;8.80;7.90;;;21.30;46.30;;;;;;5008196;28;20422;-42
2020/12/16 11:34:32;;;;;;;8.20;7.30;;;21.40;45.40;;;;;;5009603;28;20217;-43
2020/12/16 11:37:00;;;;;;;8.30;7.50;;;21.60;45.50;;;;;;5010169;28;20460;-42
2020/12/16 11:39:27;;;;;;;11.10;8.10;;;21.80;45.30;;;;;;5009593;28;20440;-42
2020/12/16 11:41:54;;;;;;;6.93;6.23;;;21.70;45.40;;;;;;5002607;28;20437;-42
2020/12/16 11:44:22;;;;;;;6.70;6.10;;;21.70;45.00;;;;;;5007346;28;20524;-43
2020/12/16 11:46:48;;;;;;;7.27;6.57;;;21.80;44.70;;;;;;5008884;28;20487;-42
2020/12/16 11:49:15;;;;;;;9.00;7.60;;;21.70;44.00;;;;;;5011333;28;20477;-43
2020/12/16 11:51:41;;;;;;;10.73;8.07;;;21.70;44.40;;;;;;5009022;28;20592;-42
2020/12/16 11:54:07;;;;;;;14.63;11.03;;;22.00;44.40;;;;;;5015911;28;20520;-43
2020/12/16 11:56:33;;;;;;;11.97;9.13;;;22.20;44.30;;;;;;5011836;28;20268;-42
2020/12/16 11:59:00;;;;;;;9.30;8.33;;;22.40;44.20;;;;;;5009790;28;20962;-42
2020/12/16 12:01:26;;;;;;;8.03;6.13;;;22.60;43.40;;;;;;5004261;28;20438;-42
2020/12/16 12:03:51;;;;;;;6.40;5.80;;;22.10;43.90;;;;;;5008761;28;20521;-42
2020/12/16 12:06:17;;;;;;;8.00;6.20;;;22.20;44.10;;;;;;5008386;28;20989;-42
2020/12/16 12:08:43;;;;;;;7.70;6.90;;;22.20;44.10;;;;;;5028109;28;20683;-42
2020/12/16 12:11:14;;;;;;;7.37;6.30;;;22.10;43.30;;;;;;5013760;28;20194;-43
2020/12/16 12:13:41;;;;;;;7.17;6.47;;;22.30;43.50;;;;;;5006681;28;20448;-42
2020/12/16 12:16:10;;;;;;;8.00;7.20;;;22.60;43.70;;;;;;5007228;28;20486;-42
2020/12/16 12:18:39;;;;;;;8.57;7.67;;;22.80;43.20;;;;;;5005963;28;20437;-42
2020/12/16 12:21:05;;;;;;;8.77;7.53;;;23.00;43.10;;;;;;5009945;28;20429;-42
2020/12/16 12:23:31;;;;;;;8.27;6.07;;;23.20;43.10;;;;;;5008988;28;20471;-42
2020/12/16 12:25:57;;;;;;;6.70;6.10;;;;;;;;;;5008325;28;20453;-42
2020/12/16 12:28:23;;;;;;;5.63;4.80;;;23.90;41.30;;;;;;5008453;28;20209;-42
2020/12/16 12:30:48;;;;;;;6.07;5.37;;;23.90;40.80;;;;;;5005913;28;20428;-42
2020/12/16 12:33:14;;;;;;;5.30;4.83;;;23.80;41.50;;;;;;5000326;28;20229;-42
2020/12/16 12:35:40;;;;;;;5.67;4.93;;;24.00;41.30;;;;;;5008468;28;20201;-42
2020/12/16 12:38:05;;;;;;;5.43;4.93;;;24.20;40.80;;;;;;5009957;28;20657;-44
2020/12/16 12:40:31;;;;;;;8.43;6.70;;;24.40;40.50;;;;;;5009596;28;20528;-42
2020/12/16 12:42:56;;;;;;;7.30;6.60;;;24.60;39.80;;;;;;5009411;28;20597;-42
2020/12/16 12:45:22;;;;;;;8.47;6.10;;;24.60;39.80;;;;;;5008282;28;20200;-42